Time;durP1;ratioP1;P1;durP2;ratioP2;P2;SDS_P1;SDS_P2;PMS_P1;PMS_P2;Temp;Humidity;BMP_temperature;BMP_pressure;BME280_temperature;BME280_humidity;BME280_pressure;Samples;Min_cycle;Max_cycle;Signal;HPM_P1;HPM_P2
2024/04/19 00:03:36;;;;;;;2.17;1.23;;;;;;;5.93;80.94;150159.91;11141104;26;20038;-71
2024/04/19 00:08:38;;;;;;;0.90;0.90;;;;;;;6.02;79.49;150184.38;11140385;26;20037;-72
2024/04/19 00:13:40;;;;;;;1.90;1.42;;;;;;;5.86;80.87;150143.16;11139752;26;20348;-70
2024/04/19 00:18:41;;;;;;;2.60;1.20;;;;;;;5.95;79.76;150165.06;11139149;26;20019;-70
2024/04/19 00:23:43;;;;;;;1.58;1.30;;;;;;;5.99;79.93;150175.38;11137395;26;20005;-70
2024/04/19 00:28:45;;;;;;;1.63;1.13;;;;;;;5.97;80.00;150170.19;11140507;26;20019;-72
2024/04/19 00:33:47;;;;;;;1.50;1.00;;;;;;;5.98;79.93;150174.09;11140592;26;20365;-70
2024/04/19 00:38:53;;;;;;;1.20;1.10;;;;;;;5.89;80.92;150150.88;11140257;26;20012;-71
2024/04/19 00:43:54;;;;;;;2.78;1.40;;;;;;;5.93;80.84;150161.22;11140095;26;20000;-71
2024/04/19 00:48:57;;;;;;;1.50;1.33;;;;;;;5.81;82.15;150131.56;11139289;26;20387;-71
2024/04/19 00:53:59;;;;;;;2.45;1.52;;;;;;;5.89;81.37;150149.56;11140916;26;20004;-71
2024/04/19 00:59:04;;;;;;;1.48;1.38;;;;;;;5.95;80.95;150166.34;11140456;26;20000;-71
2024/04/19 01:04:07;;;;;;;2.40;1.40;;;;;;;5.86;81.86;150143.16;11139007;26;20028;-70
2024/04/19 01:09:09;;;;;;;1.17;1.08;;;;;;;5.96;81.22;150168.91;11140196;26;20016;-71
2024/04/19 01:14:11;;;;;;;2.40;1.20;;;;;;;5.99;80.60;150176.66;11139699;26;20004;-70
2024/04/19 01:19:13;;;;;;;1.67;1.10;;;;;;;5.86;81.59;150143.16;11139872;26;20008;-71
2024/04/19 01:24:46;;;;;;;1.80;1.30;;;;;;;5.92;81.49;150158.63;11139229;26;20482;-71
2024/04/19 01:29:48;;;;;;;1.65;1.13;;;;;;;5.87;81.39;150144.41;11139088;26;20459;-71
2024/04/19 01:34:50;;;;;;;1.48;1.08;;;;;;;5.89;81.80;150149.56;11138157;26;20008;-72
2024/04/19 01:39:52;;;;;;;1.17;1.08;;;;;;;5.88;81.68;150147.00;11140014;26;20000;-71
2024/04/19 01:44:54;;;;;;;2.47;1.30;;;;;;;5.80;82.26;150127.72;11140077;26;20004;-71
2024/04/19 01:49:56;;;;;;;1.67;1.10;;;;;;;5.79;81.68;150125.13;11139455;26;19996;-71
2024/04/19 01:54:57;;;;;;;1.63;1.17;;;;;;;5.85;80.92;150140.59;11136771;26;20008;-71
2024/04/19 01:59:59;;;;;;;1.58;0.90;;;;;;;5.96;79.28;150167.63;11137958;26;20004;-72
2024/04/19 02:05:12;;;;;;;2.33;1.50;;;;;;;6.11;77.93;150206.25;11143587;26;20328;-71
2024/04/19 02:10:14;;;;;;;1.77;0.90;;;;;;;6.06;78.88;150194.66;11140497;26;20525;-71
2024/04/19 02:15:19;;;;;;;1.13;0.98;;;;;;;6.08;78.05;150198.53;11139425;26;20006;-71
2024/04/19 02:20:21;;;;;;;1.40;1.30;;;;;;;6.06;77.11;150194.66;11139291;26;20496;-71
2024/04/19 02:25:23;;;;;;;2.10;0.90;;;;;;;6.06;77.36;150194.66;11138554;26;20371;-71
2024/04/19 02:35:45;;;;;;;1.08;0.90;;;;;;;5.93;78.28;150159.91;11138091;26;20008;-73
2024/04/19 02:40:47;;;;;;;1.38;0.80;;;;;;;5.96;77.81;150168.91;11136577;26;20032;-71
2024/04/19 02:45:49;;;;;;;0.70;0.70;;;;;;;5.96;77.60;150167.63;11143275;26;20000;-71
2024/04/19 02:51:01;;;;;;;1.17;1.00;;;;;;;6.00;77.90;150179.22;11145492;26;20074;-71
2024/04/19 02:56:05;;;;;;;0.95;0.85;;;;;;;5.96;77.87;150167.63;11143481;26;20423;-72
2024/04/19 03:01:07;;;;;;;0.82;0.77;;;;;;;6.02;77.49;150183.03;11145335;26;20044;-71
2024/04/19 03:06:09;;;;;;;0.98;0.77;;;;;;;6.07;77.09;150197.25;11145327;26;20012;-72
2024/04/19 03:11:11;;;;;;;1.33;0.88;;;;;;;5.98;77.60;150172.78;11143585;26;20018;-72
2024/04/19 03:16:13;;;;;;;1.45;0.80;;;;;;;6.02;77.27;150184.38;11144579;26;20008;-72
2024/04/19 03:21:15;;;;;;;1.02;0.80;;;;;;;6.07;76.83;150195.94;11142950;26;20532;-72
2024/04/19 03:26:31;;;;;;;1.00;0.70;;;;;;;6.07;76.69;150197.25;10993859;27;20569;-71
2024/04/19 03:31:36;;;;;;;0.85;0.80;;;;;;;6.12;76.79;150207.53;10966750;27;20008;-71
2024/04/19 03:36:39;;;;;;;1.63;0.80;;;;;;;6.16;76.17;150217.81;10993554;27;20015;-71
2024/04/19 03:41:43;;;;;;;1.67;0.80;;;;;;;6.03;77.05;150186.94;10992650;27;20075;-72
2024/04/19 03:46:45;;;;;;;1.60;0.70;;;;;;;6.06;76.41;150193.34;10993561;27;20502;-72
2024/04/19 03:51:47;;;;;;;1.70;0.90;;;;;;;5.94;77.83;150162.50;10994646;27;20025;-71
2024/04/19 03:56:49;;;;;;;1.20;0.77;;;;;;;6.09;75.73;150201.09;10965239;27;20122;-71
2024/04/19 04:01:51;;;;;;;1.30;0.90;;;;;;;5.98;76.53;150174.09;11049478;26;20015;-72
2024/04/19 04:06:53;;;;;;;0.75;0.75;;;;;;;6.05;76.91;150192.06;11143675;26;20032;-72
2024/04/19 04:11:54;;;;;;;1.13;0.70;;;;;;;6.00;75.82;150179.22;11143880;26;20014;-71
2024/04/19 04:16:56;;;;;;;1.08;0.70;;;;;;;6.05;75.22;150190.78;11145238;26;20000;-71
2024/04/19 04:21:58;;;;;;;1.17;0.63;;;;;;;6.05;75.29;150190.78;11143461;26;20158;-72
2024/04/19 04:27:00;;;;;;;1.40;0.68;;;;;;;6.09;74.82;150199.81;11143109;26;20362;-73
2024/04/19 04:32:02;;;;;;;1.75;0.80;;;;;;;5.99;74.91;150175.38;11143203;26;20015;-70
2024/04/19 04:37:04;;;;;;;0.80;0.80;;;;;;;6.15;73.18;150215.22;11141090;26;20004;-71
2024/04/19 04:42:06;;;;;;;1.63;0.70;;;;;;;6.18;72.82;150224.25;11141691;26;20008;-72
2024/04/19 04:47:08;;;;;;;0.95;0.73;;;;;;;6.27;71.53;150247.41;11141305;26;20077;-71
2024/04/19 04:52:10;;;;;;;2.45;0.80;;;;;;;6.31;71.37;150257.69;11145931;26;20000;-72
2024/04/19 04:57:12;;;;;;;0.90;0.85;;;;;;;6.41;70.89;150280.84;11141869;26;20000;-72
2024/04/19 05:02:14;;;;;;;0.65;0.65;;;;;;;6.43;70.92;150287.31;11141403;26;20150;-72
2024/04/19 05:07:16;;;;;;;2.92;1.00;;;;;;;6.53;69.72;150311.75;11139617;26;20015;-71
2024/04/19 05:12:18;;;;;;;3.13;1.08;;;;;;;6.65;69.80;150342.66;11141214;26;20028;-71
2024/04/19 05:17:20;;;;;;;1.60;1.15;;;;;;;6.80;68.67;150379.97;11140235;26;20020;-70
2024/04/19 05:22:22;;;;;;;1.30;1.13;;;;;;;6.79;68.86;150377.41;11139466;26;20015;-71
2024/04/19 05:27:26;;;;;;;1.52;1.15;;;;;;;6.81;69.73;150382.53;11141098;26;20012;-71
2024/04/19 05:32:28;;;;;;;1.48;1.15;;;;;;;7.04;69.31;150441.81;11139025;26;20468;-72
2024/04/19 05:37:30;;;;;;;1.20;1.10;;;;;;;7.08;68.59;150452.09;11137858;26;19996;-72
2024/04/19 05:42:32;;;;;;;2.70;1.48;;;;;;;7.23;68.72;150489.44;11138767;26;20012;-71
2024/04/19 05:47:35;;;;;;;1.20;1.10;;;;;;;7.29;68.22;150504.88;11137930;26;20472;-71
2024/04/19 05:52:38;;;;;;;1.90;1.20;;;;;;;7.40;67.65;150530.66;11135999;26;20007;-71
2024/04/19 05:57:40;;;;;;;2.15;1.60;;;;;;;7.57;68.31;150574.47;11136655;26;19996;-70
2024/04/19 06:02:42;;;;;;;1.70;1.42;;;;;;;7.75;66.72;150620.84;11138161;26;20008;-72
2024/04/19 06:07:46;;;;;;;2.42;1.83;;;;;;;7.86;66.08;150646.59;11138387;26;20028;-72
2024/04/19 06:12:48;;;;;;;2.10;1.30;;;;;;;8.04;65.98;150692.97;11136573;26;20015;-71
2024/04/19 06:17:50;;;;;;;2.42;1.60;;;;;;;8.16;66.15;150723.91;11134785;26;20028;-71
2024/04/19 06:22:52;;;;;;;3.03;1.95;;;;;;;8.27;65.59;150750.94;11139375;26;20016;-71
2024/04/19 06:27:54;;;;;;;3.25;2.53;;;;;;;8.31;66.48;150762.56;11139618;26;19997;-72
2024/04/19 06:32:56;;;;;;;2.15;1.95;;;;;;;8.55;65.92;150823.22;11138872;26;20012;-72
2024/04/19 06:37:58;;;;;;;2.25;2.05;;;;;;;8.43;64.77;150792.25;11139164;26;20453;-71
2024/04/19 06:43:00;;;;;;;2.38;2.17;;;;;;;8.47;64.56;150801.28;11139202;26;20004;-71
2024/04/19 06:48:02;;;;;;;2.60;2.40;;;;;;;8.47;64.29;150801.28;11140163;26;20010;-71
2024/04/19 06:53:04;;;;;;;3.22;2.78;;;;;;;8.52;65.43;150815.47;11138003;26;20008;-70
2024/04/19 06:58:07;;;;;;;3.30;3.00;;;;;;;8.47;64.19;150802.56;11158200;26;20018;-71
2024/04/19 07:03:09;;;;;;;2.65;2.42;;;;;;;8.54;65.29;150819.31;11192898;26;20008;-72
2024/04/19 07:08:11;;;;;;;7.28;2.78;;;;;;;8.68;64.37;150855.44;11139710;26;20008;-71
2024/04/19 07:13:13;;;;;;;3.70;2.33;;;;;;;8.84;64.82;150896.69;11152426;26;20475;-70
2024/04/19 07:18:21;;;;;;;4.03;2.45;;;;;;;8.93;65.16;150918.59;11208700;26;20000;-70
2024/04/19 07:23:23;;;;;;;2.22;2.03;;;;;;;8.83;65.73;150892.81;11208303;26;20003;-70
2024/04/19 07:28:25;;;;;;;2.25;2.03;;;;;;;8.97;62.45;150928.91;11177880;26;20004;-71
2024/04/19 07:33:27;;;;;;;2.53;1.63;;;;;;;9.02;60.63;150941.81;11157560;26;20019;-71
2024/04/19 07:38:29;;;;;;;1.83;1.73;;;;;;;9.17;60.32;150979.25;11214253;26;20022;-71
2024/04/19 07:43:30;;;;;;;2.40;1.73;;;;;;;9.16;59.85;150975.34;11174961;26;20000;-72
2024/04/19 07:48:32;;;;;;;2.28;1.50;;;;;;;9.25;59.31;150999.88;11143704;26;20387;-71
2024/04/19 07:53:34;;;;;;;2.03;1.40;;;;;;;9.28;58.18;151007.59;11142766;26;20016;-71
2024/04/19 07:58:36;;;;;;;2.85;1.00;;;;;;;9.28;56.16;151006.31;11155763;26;20084;-71
2024/04/19 08:03:39;;;;;;;0.90;0.80;;;;;;;9.07;54.22;150954.75;11185672;26;20442;-70
2024/04/19 08:08:41;;;;;;;1.52;0.90;;;;;;;8.59;57.57;150832.25;11166805;26;20001;-71
2024/04/19 08:13:43;;;;;;;1.65;0.90;;;;;;;8.57;61.46;150828.34;11140166;26;20094;-71
2024/04/19 08:18:45;;;;;;;1.58;1.48;;;;;;;8.56;61.66;150825.78;11140635;26;20015;-71
2024/04/19 08:23:47;;;;;;;1.25;1.15;;;;;;;8.55;62.76;150823.22;11159464;26;20005;-72
2024/04/19 08:28:49;;;;;;;1.13;1.00;;;;;;;8.91;59.90;150912.19;11201698;26;20004;-72
2024/04/19 08:33:53;;;;;;;3.95;1.17;;;;;;;9.08;61.03;150956.03;11141229;26;20390;-72
2024/04/19 08:38:55;;;;;;;5.45;1.10;;;;;;;9.50;61.90;151063.06;11141288;26;20545;-72
2024/04/19 08:43:59;;;;;;;1.00;1.00;;;;;;;9.38;59.39;151030.81;11139311;26;20356;-71
2024/04/19 08:49:04;;;;;;;2.10;1.13;;;;;;;9.04;62.27;150947.00;11140666;26;20073;-71
2024/04/19 08:54:08;;;;;;;1.17;1.08;;;;;;;9.36;62.30;151026.94;11140146;26;20377;-72
2024/04/19 08:59:10;;;;;;;1.63;1.20;;;;;;;9.54;62.47;151072.09;11140327;26;20382;-71
2024/04/19 09:04:12;;;;;;;1.30;1.20;;;;;;;9.41;63.33;151038.56;11139614;26;20085;-72
2024/04/19 09:09:16;;;;;;;2.08;0.90;;;;;;;9.55;62.57;151074.66;11139412;26;20027;-71
2024/04/19 09:14:19;;;;;;;0.70;0.70;;;;;;;9.58;61.50;151083.72;11139957;26;20073;-72
2024/04/19 09:19:23;;;;;;;2.28;0.73;;;;;;;9.38;63.08;151030.81;11139334;26;20012;-72
2024/04/19 09:24:25;;;;;;;0.60;0.60;;;;;;;9.24;62.24;150995.97;11139421;26;20004;-71
2024/04/19 09:29:26;;;;;;;1.90;0.70;;;;;;;9.12;62.64;150965.03;11140806;26;20004;-72
2024/04/19 09:34:29;;;;;;;1.45;0.70;;;;;;;9.00;63.09;150935.38;11140462;26;19996;-71
2024/04/19 09:39:34;;;;;;;1.88;1.25;;;;;;;8.68;64.95;150854.16;11138442;26;20007;-71
2024/04/19 09:44:39;;;;;;;0.80;0.80;;;;;;;8.73;66.57;150868.34;11137941;26;20036;-71
2024/04/19 09:49:46;;;;;;;0.63;0.50;;;;;;;8.88;64.22;150904.44;11140054;26;20044;-71
2024/04/19 09:55:05;;;;;;;1.17;0.60;;;;;;;9.10;64.94;150962.44;11139249;26;20077;-71
2024/04/19 10:00:09;;;;;;;1.13;0.60;;;;;;;9.21;63.13;150988.22;11139760;26;20003;-71
2024/04/19 10:05:13;;;;;;;0.40;0.40;;;;;;;8.98;63.49;150930.19;11140105;26;20468;-71
2024/04/19 10:10:15;;;;;;;0.82;0.52;;;;;;;9.04;62.98;150945.72;11139446;26;20000;-71
2024/04/19 10:15:22;;;;;;;0.50;0.50;;;;;;;9.03;63.56;150943.09;11139905;26;20019;-72
2024/04/19 10:20:25;;;;;;;0.55;0.40;;;;;;;9.55;65.13;151075.94;11139302;26;20004;-72
2024/04/19 10:25:27;;;;;;;0.40;0.40;;;;;;;10.13;61.60;151221.78;11136457;26;20004;-73
2024/04/19 10:30:31;;;;;;;0.60;0.60;;;;;;;10.18;60.41;151234.72;11136366;26;19997;-72
2024/04/19 10:35:41;;;;;;;0.40;0.40;;;;;;;9.94;62.49;151172.75;11138685;26;20037;-72
2024/04/19 10:40:43;;;;;;;0.50;0.50;;;;;;;9.35;62.60;151024.38;11138144;26;20011;-72
2024/04/19 10:45:45;;;;;;;0.60;0.50;;;;;;;9.28;63.33;151007.59;11137833;26;20008;-71
2024/04/19 10:50:47;;;;;;;0.80;0.50;;;;;;;9.09;62.84;150959.88;11136867;26;20366;-71
2024/04/19 10:55:49;;;;;;;0.57;0.52;;;;;;;9.14;69.10;150970.19;11138420;26;20019;-71
2024/04/19 11:00:51;;;;;;;1.13;0.70;;;;;;;8.91;71.21;150913.47;11139100;26;19996;-73
2024/04/19 11:05:54;;;;;;;0.80;0.70;;;;;;;8.63;74.83;150841.22;11140146;26;20508;-71
2024/04/19 11:10:57;;;;;;;2.33;0.70;;;;;;;8.49;77.55;150807.72;11145047;26;20344;-72
2024/04/19 11:15:59;;;;;;;0.80;0.70;;;;;;;8.44;79.56;150793.53;11143983;26;20073;-72
2024/04/19 11:21:01;;;;;;;0.77;0.68;;;;;;;8.02;78.76;150687.84;11144566;26;20353;-72
2024/04/19 11:26:14;;;;;;;0.88;0.60;;;;;;;7.78;83.97;150627.25;11144933;26;20011;-72
2024/04/19 11:31:16;;;;;;;0.80;0.60;;;;;;;7.62;86.00;150586.06;11143164;26;20003;-71
2024/04/19 11:36:18;;;;;;;0.60;0.60;;;;;;;7.36;87.26;150520.34;11144728;26;20010;-72
2024/04/19 11:41:21;;;;;;;1.05;0.70;;;;;;;7.25;92.95;150494.56;11191376;26;20010;-71
2024/04/19 11:46:25;;;;;;;0.50;0.50;;;;;;;7.20;95.48;150481.69;11215658;26;20014;-73
2024/04/19 11:51:27;;;;;;;0.93;0.65;;;;;;;7.11;97.85;150457.22;11144165;26;20339;-72
2024/04/19 11:56:29;;;;;;;1.00;0.77;;;;;;;6.98;98.49;150426.31;11142814;26;20073;-72
2024/04/19 12:01:31;;;;;;;0.70;0.55;;;;;;;7.10;99.96;150455.94;11140384;26;20007;-72
2024/04/19 12:06:33;;;;;;;0.40;0.30;;;;;;;6.60;97.78;150329.78;11141930;26;20383;-71
2024/04/19 12:11:35;;;;;;;0.28;0.22;;;;;;;6.38;100.00;150274.44;11142311;26;20403;-72
2024/04/19 12:16:38;;;;;;;0.00;0.00;;;;;;;6.05;100.00;150190.78;11138845;26;20008;-72
2024/04/19 12:21:50;;;;;;;0.98;0.10;;;;;;;5.79;100.00;150125.13;11140748;26;20000;-71
2024/04/19 12:26:55;;;;;;;0.20;0.10;;;;;;;5.73;100.00;150110.97;11140479;26;20008;-72
2024/04/19 12:31:59;;;;;;;0.00;0.00;;;;;;;5.59;100.00;150073.69;11154824;26;20005;-72
2024/04/19 12:37:01;;;;;;;0.10;0.10;;;;;;;5.63;100.00;150084.00;11177064;26;20459;-72
2024/04/19 12:42:04;;;;;;;0.10;0.10;;;;;;;5.85;100.00;150140.59;11215092;26;20011;-72
2024/04/19 12:47:06;;;;;;;0.10;0.10;;;;;;;6.03;100.00;150186.94;11214502;26;20066;-72
2024/04/19 12:52:08;;;;;;;0.28;0.10;;;;;;;6.07;100.00;150195.94;11213831;26;20337;-71
2024/04/19 12:57:10;;;;;;;0.10;0.10;;;;;;;6.13;100.00;150211.38;11213193;26;20032;-73
2024/04/19 13:02:12;;;;;;;0.10;0.10;;;;;;;5.83;100.00;150136.69;11212115;26;20035;-72
2024/04/19 13:07:14;;;;;;;0.10;0.10;;;;;;;5.77;100.00;150120.00;11214349;26;20004;-72
2024/04/19 13:12:16;;;;;;;0.03;0.00;;;;;;;5.63;100.00;150085.28;11214576;26;20009;-72
2024/04/19 13:17:18;;;;;;;0.20;0.10;;;;;;;5.63;100.00;150084.00;11210564;26;20014;-71
2024/04/19 13:22:20;;;;;;;0.13;0.13;;;;;;;5.72;100.00;150108.41;11213528;26;20014;-71
2024/04/19 13:27:21;;;;;;;0.15;0.15;;;;;;;5.85;100.00;150140.59;11210461;26;19991;-71
2024/04/19 13:32:24;;;;;;;0.10;0.10;;;;;;;5.89;100.00;150149.56;11212677;26;20014;-72
2024/04/19 13:37:26;;;;;;;0.10;0.10;;;;;;;5.91;100.00;150156.00;11212577;26;20007;-72
2024/04/19 13:42:28;;;;;;;0.20;0.20;;;;;;;5.97;100.00;150170.19;11212263;26;20015;-73
2024/04/19 13:47:30;;;;;;;0.25;0.20;;;;;;;6.06;100.00;150194.66;11212335;26;20019;-72
2024/04/19 13:52:32;;;;;;;0.13;0.13;;;;;;;6.20;100.00;150228.13;11212638;26;20004;-72
2024/04/19 13:57:35;;;;;;;0.70;0.30;;;;;;;6.39;100.00;150277.00;11211227;26;20467;-72
2024/04/19 14:02:38;;;;;;;0.20;0.20;;;;;;;6.74;100.00;150364.53;11212514;26;20014;-73
2024/04/19 14:07:40;;;;;;;0.10;0.10;;;;;;;6.75;100.00;150367.09;11211199;26;20011;-73
2024/04/19 14:13:02;;;;;;;0.10;0.10;;;;;;;6.75;100.00;150368.38;11208588;26;20003;-72
2024/04/19 14:18:04;;;;;;;0.10;0.10;;;;;;;6.93;99.79;150413.44;11210845;26;20003;-72
2024/04/19 14:23:06;;;;;;;0.57;0.20;;;;;;;7.34;97.16;150517.75;11210719;26;20007;-71
2024/04/19 14:28:09;;;;;;;0.25;0.20;;;;;;;7.53;96.30;150565.44;11211318;26;20008;-72
2024/04/19 14:33:11;;;;;;;0.40;0.20;;;;;;;7.57;94.16;150574.47;11209982;26;20041;-71
2024/04/19 14:38:13;;;;;;;0.20;0.20;;;;;;;7.67;95.73;150598.94;11209229;26;20085;-72
2024/04/19 14:43:15;;;;;;;0.75;0.40;;;;;;;7.72;93.43;150611.81;11218665;26;19999;-73
2024/04/19 14:48:17;;;;;;;0.50;0.35;;;;;;;7.69;92.16;150604.06;11220829;26;20011;-73
2024/04/19 14:53:19;;;;;;;0.40;0.30;;;;;;;8.17;93.24;150726.47;11218174;26;20014;-74
2024/04/19 14:58:21;;;;;;;0.20;0.20;;;;;;;8.06;91.21;150699.44;11219017;26;20126;-72
2024/04/19 15:03:23;;;;;;;0.20;0.15;;;;;;;7.87;89.27;150650.44;11217705;26;20011;-72
2024/04/19 15:08:25;;;;;;;0.40;0.20;;;;;;;7.65;92.16;150595.03;11218247;26;20003;-73
2024/04/19 15:13:27;;;;;;;0.30;0.30;;;;;;;7.87;90.80;150650.44;11219209;26;20003;-73
2024/04/19 15:18:29;;;;;;;0.20;0.20;;;;;;;7.80;88.60;150632.44;11219300;26;19996;-72
2024/04/19 15:23:31;;;;;;;0.30;0.20;;;;;;;8.07;91.39;150702.00;11215504;26;20007;-73
2024/04/19 15:28:33;;;;;;;0.20;0.20;;;;;;;8.08;88.21;150704.56;11217231;26;20036;-73
2024/04/19 15:33:35;;;;;;;0.13;0.13;;;;;;;7.84;88.04;150642.72;11216832;26;20004;-73
2024/04/19 15:38:41;;;;;;;0.22;0.17;;;;;;;7.66;87.72;150596.31;11216890;26;20423;-72
2024/04/19 15:43:47;;;;;;;0.20;0.20;;;;;;;7.51;87.53;150560.25;11214273;26;20076;-73
2024/04/19 15:48:49;;;;;;;0.13;0.13;;;;;;;7.65;90.14;150593.75;11215664;26;20273;-73
2024/04/19 15:53:50;;;;;;;0.20;0.20;;;;;;;7.73;87.69;150615.66;11217004;26;20374;-72
2024/04/19 15:58:52;;;;;;;0.38;0.20;;;;;;;7.65;88.37;150593.75;11218056;26;20097;-73
2024/04/19 16:03:54;;;;;;;0.38;0.30;;;;;;;7.67;88.24;150600.22;11216783;26;20018;-72
2024/04/19 16:08:58;;;;;;;0.28;0.20;;;;;;;7.66;88.67;150597.66;11217266;26;20000;-73
2024/04/19 16:14:00;;;;;;;0.88;0.35;;;;;;;7.68;88.13;150601.50;11216819;26;20007;-74
2024/04/19 16:19:02;;;;;;;0.73;0.20;;;;;;;7.60;88.22;150582.16;11213808;26;20010;-73
2024/04/19 16:24:04;;;;;;;0.28;0.28;;;;;;;7.67;86.86;150598.94;11215733;26;20332;-72
2024/04/19 16:29:06;;;;;;;0.28;0.28;;;;;;;7.68;86.24;150601.50;11215015;26;20415;-73
2024/04/19 16:34:09;;;;;;;0.52;0.20;;;;;;;7.67;86.09;150600.22;11213645;26;20459;-72
2024/04/19 16:39:13;;;;;;;0.28;0.28;;;;;;;7.59;86.47;150579.59;11215439;26;20491;-73
2024/04/19 16:44:15;;;;;;;2.03;1.67;;;;;;;7.46;86.56;150546.09;11195040;26;20068;-73
2024/04/19 16:49:17;;;;;;;10.65;6.85;;;;;;;7.45;86.70;150543.53;11172121;26;20012;-72
2024/04/19 16:54:19;;;;;;;0.30;0.30;;;;;;;7.51;85.71;150560.25;11190184;26;20073;-72
2024/04/19 16:59:21;;;;;;;1.20;0.68;;;;;;;7.33;86.77;150515.16;11212307;26;20363;-72
2024/04/19 17:04:24;;;;;;;0.50;0.30;;;;;;;7.27;87.51;150499.75;11141996;26;20012;-72
2024/04/19 17:09:26;;;;;;;0.25;0.25;;;;;;;7.22;87.47;150485.59;11140611;26;20011;-73
2024/04/19 17:14:28;;;;;;;0.88;0.20;;;;;;;7.17;87.33;150474.00;11139713;26;20430;-73
2024/04/19 17:19:30;;;;;;;0.45;0.20;;;;;;;7.24;86.49;150490.72;11185229;26;20017;-73
2024/04/19 17:24:32;;;;;;;0.30;0.20;;;;;;;7.21;88.17;150484.25;11213419;26;20077;-72
2024/04/19 17:29:35;;;;;;;0.43;0.20;;;;;;;7.27;87.17;150498.47;11150610;26;20019;-74
2024/04/19 17:34:39;;;;;;;0.60;0.30;;;;;;;7.11;88.33;150458.50;11209755;26;19999;-73
2024/04/19 17:39:42;;;;;;;0.10;0.10;;;;;;;7.10;88.40;150454.66;11184304;26;20014;-73
2024/04/19 17:44:44;;;;;;;0.70;0.50;;;;;;;7.16;87.59;150470.09;11207160;26;20076;-73
2024/04/19 17:49:46;;;;;;;0.47;0.30;;;;;;;7.15;87.25;150468.81;11214359;26;20015;-72
2024/04/19 17:54:57;;;;;;;0.35;0.30;;;;;;;7.10;89.51;150455.94;11211579;26;19991;-78
2024/04/19 17:59:59;;;;;;;0.20;0.20;;;;;;;7.13;87.69;150462.34;11209485;26;20004;-74
2024/04/19 18:05:01;;;;;;;0.20;0.20;;;;;;;7.13;87.91;150463.69;11141117;26;20081;-74
2024/04/19 18:10:04;;;;;;;0.43;0.22;;;;;;;7.04;88.07;150441.81;11141811;26;20000;-73
2024/04/19 18:15:06;;;;;;;0.30;0.25;;;;;;;7.02;88.22;150436.63;11140951;26;20008;-73
2024/04/19 18:20:08;;;;;;;0.40;0.30;;;;;;;6.96;87.86;150421.19;11144840;26;20010;-74
2024/04/19 18:25:10;;;;;;;0.28;0.28;;;;;;;6.93;87.72;150413.44;11142508;26;20004;-72
2024/04/19 18:30:12;;;;;;;0.40;0.30;;;;;;;6.72;89.85;150360.66;11142529;26;20009;-74
2024/04/19 18:35:17;;;;;;;0.30;0.22;;;;;;;6.82;88.71;150386.44;11166959;26;20004;-73
2024/04/19 18:40:19;;;;;;;0.20;0.10;;;;;;;6.68;89.52;150349.06;11214384;26;20359;-72
2024/04/19 18:45:23;;;;;;;0.45;0.20;;;;;;;6.66;90.02;150343.94;11215796;26;20004;-74
2024/04/19 18:50:25;;;;;;;0.75;0.30;;;;;;;6.61;90.25;150331.06;11215200;26;19999;-72
2024/04/19 18:55:28;;;;;;;0.20;0.20;;;;;;;6.66;89.52;150343.94;11215634;26;20010;-74
2024/04/19 19:00:30;;;;;;;0.20;0.20;;;;;;;6.68;89.86;150350.34;11215041;26;20018;-74
2024/04/19 19:05:33;;;;;;;0.40;0.20;;;;;;;6.68;89.90;150350.34;11213115;26;20013;-72
2024/04/19 19:10:35;;;;;;;0.10;0.10;;;;;;;6.74;88.99;150364.53;11212683;26;20011;-72
2024/04/19 19:15:37;;;;;;;0.70;0.28;;;;;;;6.68;90.41;150349.06;11213284;26;20019;-72
2024/04/19 19:20:39;;;;;;;0.20;0.17;;;;;;;6.76;90.16;150369.66;11215504;26;20007;-74
2024/04/19 19:25:41;;;;;;;0.35;0.22;;;;;;;6.78;89.70;150376.13;11203297;26;20000;-73
2024/04/19 19:30:43;;;;;;;0.30;0.20;;;;;;;6.84;89.82;150390.28;11189327;26;20053;-73
2024/04/19 19:35:54;;;;;;;0.30;0.30;;;;;;;6.73;90.83;150361.94;11180999;26;20383;-71
2024/04/19 19:40:56;;;;;;;0.20;0.20;;;;;;;6.70;91.26;150354.25;11148663;26;20004;-73
2024/04/19 19:45:58;;;;;;;0.40;0.40;;;;;;;6.65;91.65;150342.66;11209447;26;20025;-73
2024/04/19 19:51:01;;;;;;;0.73;0.73;;;;;;;6.63;92.06;150336.19;11219455;26;20013;-72
2024/04/19 19:56:03;;;;;;;0.30;0.30;;;;;;;6.54;93.94;150315.59;11218855;26;20007;-72
2024/04/19 20:06:26;;;;;;;0.32;0.20;;;;;;;6.49;95.95;150302.75;11141808;26;20028;-72
2024/04/19 20:11:28;;;;;;;0.35;0.35;;;;;;;6.41;97.76;150282.13;11142814;26;20011;-74
2024/04/19 20:16:30;;;;;;;0.20;0.20;;;;;;;6.37;98.75;150270.56;11142038;26;20016;-73
2024/04/19 20:21:32;;;;;;;0.35;0.30;;;;;;;6.26;100.00;150243.56;11141918;26;20008;-72
2024/04/19 20:26:34;;;;;;;0.38;0.30;;;;;;;6.15;100.00;150216.50;11140628;26;20359;-72
2024/04/19 20:31:36;;;;;;;0.65;0.55;;;;;;;6.05;100.00;150192.06;11142401;26;20074;-72
2024/04/19 20:36:38;;;;;;;0.40;0.30;;;;;;;6.03;100.00;150186.94;11143247;26;20016;-73
2024/04/19 20:41:40;;;;;;;0.30;0.30;;;;;;;5.90;100.00;150153.44;11142753;26;20050;-74
2024/04/19 20:46:42;;;;;;;0.30;0.30;;;;;;;5.90;100.00;150152.16;11141637;26;20007;-73
2024/04/19 20:51:44;;;;;;;0.30;0.30;;;;;;;5.82;100.00;150132.84;11141056;26;20472;-73
2024/04/19 20:56:45;;;;;;;0.40;0.40;;;;;;;5.81;100.00;150130.28;11139950;26;20077;-72
2024/04/19 21:01:47;;;;;;;0.40;0.35;;;;;;;5.89;100.00;150150.88;11139989;26;20001;-72
2024/04/19 21:06:49;;;;;;;0.52;0.20;;;;;;;5.61;100.00;150080.09;11139369;26;20004;-72
2024/04/19 21:11:51;;;;;;;0.90;0.40;;;;;;;5.54;100.00;150062.13;11139402;26;20008;-71
2024/04/19 21:16:53;;;;;;;0.30;0.30;;;;;;;5.43;100.00;150035.09;11139300;26;20001;-72
2024/04/19 21:21:56;;;;;;;0.28;0.20;;;;;;;5.30;100.00;150001.66;11138885;26;20004;-71
2024/04/19 21:27:01;;;;;;;0.40;0.20;;;;;;;5.15;100.00;149963.09;11138780;26;20016;-71
2024/04/19 21:32:03;;;;;;;0.30;0.20;;;;;;;5.19;100.00;149974.66;11139963;26;20004;-72
2024/04/19 21:37:05;;;;;;;0.40;0.30;;;;;;;5.01;100.00;149929.69;11138444;26;20000;-71
2024/04/19 21:42:07;;;;;;;0.10;0.10;;;;;;;5.12;100.00;149956.66;11138973;26;20007;-71
2024/04/19 21:47:09;;;;;;;0.22;0.20;;;;;;;5.13;100.00;149957.94;11140887;26;20020;-72
2024/04/19 21:52:11;;;;;;;0.20;0.20;;;;;;;5.15;100.00;149963.09;11140542;26;20062;-70
2024/04/19 21:57:13;;;;;;;0.55;0.30;;;;;;;5.09;100.00;149948.97;11138752;26;20526;-71
2024/04/19 22:02:15;;;;;;;0.30;0.22;;;;;;;5.12;100.00;149956.66;11140707;26;20040;-72
2024/04/19 22:07:17;;;;;;;0.40;0.40;;;;;;;5.15;100.00;149964.38;11138521;26;20382;-72
2024/04/19 22:12:21;;;;;;;0.40;0.40;;;;;;;5.23;100.00;149983.69;11140782;26;20004;-72
2024/04/19 22:17:28;;;;;;;0.68;0.65;;;;;;;5.22;100.00;149982.41;11141018;26;20000;-72
2024/04/19 22:22:33;;;;;;;0.50;0.50;;;;;;;5.22;100.00;149982.41;11140709;26;20000;-71
2024/04/19 22:27:35;;;;;;;0.75;0.70;;;;;;;5.23;100.00;149983.69;11140672;26;20000;-71
2024/04/19 22:32:37;;;;;;;0.47;0.47;;;;;;;5.38;100.00;150020.97;11138213;26;20004;-72
2024/04/19 22:37:39;;;;;;;1.40;0.73;;;;;;;5.38;100.00;150020.97;11139594;26;20015;-71
2024/04/19 22:42:41;;;;;;;0.70;0.70;;;;;;;5.43;100.00;150033.81;11138950;26;20040;-72
2024/04/19 22:47:44;;;;;;;0.73;0.70;;;;;;;5.49;100.00;150049.22;11136085;26;20008;-71
2024/04/19 22:52:46;;;;;;;1.08;1.02;;;;;;;5.52;100.00;150056.94;11136794;26;20004;-72
2024/04/19 22:57:48;;;;;;;1.25;1.13;;;;;;;5.57;100.00;150071.09;11137359;26;20486;-72
2024/04/19 23:02:50;;;;;;;1.95;0.60;;;;;;;5.56;100.00;150067.25;11142060;26;19996;-72
2024/04/19 23:07:52;;;;;;;1.15;0.85;;;;;;;5.70;100.00;150103.25;11142320;26;20005;-72
2024/04/19 23:12:53;;;;;;;1.33;0.75;;;;;;;5.68;100.00;150096.84;11141909;26;20456;-71
2024/04/19 23:17:55;;;;;;;0.95;0.68;;;;;;;5.62;100.00;150082.66;11141595;26;20054;-71
2024/04/19 23:22:58;;;;;;;2.42;0.82;;;;;;;5.66;100.00;150091.66;11141483;26;20073;-71
2024/04/19 23:28:00;;;;;;;1.13;0.80;;;;;;;5.69;100.00;150099.41;11142027;26;20460;-71
2024/04/19 23:33:02;;;;;;;1.60;1.10;;;;;;;5.70;100.00;150103.25;11140975;26;20019;-71
2024/04/19 23:38:04;;;;;;;1.48;0.80;;;;;;;5.67;100.00;150095.56;11139235;26;20004;-71